createdAt,value
2022-11-14T00:01:10.411Z,7.18
2022-11-14T00:03:56.506Z,7.65
2022-11-14T00:06:42.784Z,7.93
2022-11-14T00:09:29.695Z,7.70
2022-11-14T00:12:15.888Z,7.07
2022-11-14T00:15:02.083Z,8.23
2022-11-14T00:17:48.503Z,8.07
2022-11-14T00:20:34.620Z,9.25
2022-11-14T00:23:21.632Z,9.15
2022-11-14T00:26:08.076Z,8.98
2022-11-14T00:28:57.727Z,9.85
2022-11-14T00:31:44.475Z,9.25
2022-11-14T00:34:30.496Z,8.73
2022-11-14T00:37:16.724Z,8.27
2022-11-14T00:40:02.831Z,9.77
2022-11-14T00:42:48.803Z,8.68
2022-11-14T00:45:34.713Z,8.77
2022-11-14T00:48:20.827Z,8.05
2022-11-14T00:51:07.106Z,7.78
2022-11-14T00:53:52.996Z,8.00
2022-11-14T00:56:39.352Z,7.10
2022-11-14T00:59:25.604Z,7.13
2022-11-14T01:02:12.028Z,6.60
2022-11-14T01:04:58.051Z,7.18
2022-11-14T01:07:44.264Z,6.63
2022-11-14T01:10:30.598Z,6.15
2022-11-14T01:13:18.282Z,6.93
2022-11-14T01:16:06.744Z,6.25
2022-11-14T01:18:52.561Z,6.53
2022-11-14T01:21:38.950Z,6.65
2022-11-14T01:24:25.093Z,6.78
2022-11-14T01:27:11.084Z,7.55
2022-11-14T01:29:57.200Z,6.75
2022-11-14T01:32:43.166Z,6.05
2022-11-14T01:35:29.748Z,6.80
2022-11-14T01:38:16.325Z,6.65
2022-11-14T01:41:02.744Z,7.45
2022-11-14T01:43:49.560Z,7.30
2022-11-14T01:46:40.749Z,7.28
2022-11-14T01:49:38.432Z,7.05
2022-11-14T01:52:29.352Z,7.30
2022-11-14T01:55:15.364Z,6.53
2022-11-14T01:58:01.398Z,7.50
2022-11-14T02:00:47.548Z,7.90
2022-11-14T02:03:38.001Z,7.15
2022-11-14T02:06:26.873Z,7.22
2022-11-14T02:09:13.266Z,7.45
2022-11-14T02:12:01.377Z,7.88
2022-11-14T02:14:51.026Z,7.72
2022-11-14T02:17:37.479Z,7.70
2022-11-14T02:20:29.417Z,7.85
2022-11-14T02:23:17.982Z,7.75
2022-11-14T02:26:03.843Z,7.75
2022-11-14T02:28:51.254Z,7.80
2022-11-14T02:31:37.712Z,7.55
2022-11-14T02:34:23.946Z,9.00
2022-11-14T02:37:10.305Z,9.00
2022-11-14T02:39:56.418Z,8.60
2022-11-14T02:42:42.385Z,8.80
2022-11-14T02:45:28.900Z,9.32
2022-11-14T02:48:14.922Z,9.80
2022-11-14T02:51:01.118Z,8.88
2022-11-14T02:53:47.097Z,8.70
2022-11-14T02:56:32.791Z,9.40
2022-11-14T02:59:19.095Z,9.23
2022-11-14T03:02:05.287Z,9.13
2022-11-14T03:04:51.273Z,9.27
2022-11-14T03:07:37.691Z,8.98
2022-11-14T03:10:24.393Z,7.68
2022-11-14T03:13:10.710Z,9.43
2022-11-14T03:15:56.698Z,9.98
2022-11-14T03:18:42.591Z,9.40
2022-11-14T03:21:28.608Z,10.35
2022-11-14T03:24:14.616Z,9.95
2022-11-14T03:27:00.788Z,9.45
2022-11-14T03:29:48.611Z,9.52
2022-11-14T03:32:34.890Z,9.98
2022-11-14T03:35:20.756Z,9.30
2022-11-14T03:38:06.718Z,9.88
2022-11-14T03:40:53.277Z,8.93
2022-11-14T03:43:39.187Z,9.80
2022-11-14T03:46:25.152Z,9.18
2022-11-14T03:49:11.203Z,10.10
2022-11-14T03:51:57.211Z,9.48
2022-11-14T03:54:43.244Z,9.70
2022-11-14T03:57:29.212Z,10.23
2022-11-14T04:00:15.818Z,8.63
2022-11-14T04:03:02.076Z,8.60
2022-11-14T04:05:49.070Z,8.43
2022-11-14T04:08:35.085Z,9.05
2022-11-14T04:11:21.230Z,9.77
2022-11-14T04:14:07.253Z,8.43
2022-11-14T04:16:53.381Z,8.75
2022-11-14T04:19:39.401Z,8.55
2022-11-14T04:22:25.482Z,9.30
2022-11-14T04:25:11.873Z,9.63
2022-11-14T04:27:57.726Z,9.77
2022-11-14T04:30:45.386Z,9.38
2022-11-14T04:33:33.672Z,8.98
2022-11-14T04:36:19.900Z,9.23
2022-11-14T04:39:06.326Z,9.57
2022-11-14T04:41:52.185Z,9.07
2022-11-14T04:44:38.224Z,10.25
2022-11-14T04:47:24.206Z,9.60
2022-11-14T04:50:11.301Z,9.48
2022-11-14T04:52:57.585Z,8.55
2022-11-14T04:55:46.024Z,8.82
2022-11-14T04:58:32.568Z,8.75
2022-11-14T05:01:19.127Z,9.60
2022-11-14T05:04:05.234Z,8.82
2022-11-14T05:06:51.295Z,9.50
2022-11-14T05:09:37.375Z,8.95
2022-11-14T05:12:23.319Z,9.30
2022-11-14T05:15:10.009Z,7.82
2022-11-14T05:17:58.761Z,8.95
2022-11-14T05:20:45.287Z,9.02
2022-11-14T05:23:31.732Z,9.63
2022-11-14T05:26:19.050Z,9.20
2022-11-14T05:29:05.298Z,9.30
2022-11-14T05:31:51.090Z,9.65
2022-11-14T05:34:37.222Z,10.10
2022-11-14T05:37:23.587Z,9.30
2022-11-14T05:40:10.307Z,8.23
2022-11-14T05:42:57.772Z,9.35
2022-11-14T05:45:44.019Z,9.55
2022-11-14T05:48:31.817Z,9.05
2022-11-14T05:51:18.208Z,9.38
2022-11-14T05:54:04.235Z,7.97
2022-11-14T05:56:50.209Z,8.90
2022-11-14T05:59:36.158Z,9.85
2022-11-14T06:02:22.407Z,9.48
2022-11-14T06:05:08.571Z,8.52
2022-11-14T06:07:59.359Z,8.55
2022-11-14T06:10:45.596Z,9.68
2022-11-14T06:13:32.193Z,8.65
2022-11-14T06:16:19.916Z,8.82
2022-11-14T06:19:06.222Z,8.80
2022-11-14T06:21:52.680Z,8.50
2022-11-14T06:24:38.675Z,9.50
2022-11-14T06:27:24.965Z,8.20
2022-11-14T06:30:11.622Z,8.77
2022-11-14T06:33:01.291Z,8.02
2022-11-14T06:35:47.556Z,8.90
2022-11-14T06:38:35.854Z,8.02
2022-11-14T06:41:23.357Z,8.27
2022-11-14T06:44:09.468Z,7.97
2022-11-14T06:46:56.581Z,8.73
2022-11-14T06:49:42.990Z,8.23
2022-11-14T06:52:31.228Z,7.40
2022-11-14T06:55:22.364Z,7.82
2022-11-14T06:58:11.213Z,7.63
2022-11-14T07:00:57.380Z,7.85
2022-11-14T07:03:44.139Z,7.60
2022-11-14T07:06:31.405Z,7.70
2022-11-14T07:09:17.780Z,8.32
2022-11-14T07:12:03.681Z,7.53
2022-11-14T07:14:49.514Z,8.10
2022-11-14T07:17:36.575Z,7.72
2022-11-14T07:20:22.776Z,7.72
2022-11-14T07:23:09.053Z,9.13
2022-11-14T07:25:55.215Z,8.45
2022-11-14T07:28:44.506Z,9.05
2022-11-14T07:31:33.415Z,9.65
2022-11-14T07:34:19.518Z,8.63
2022-11-14T07:37:05.747Z,8.13
2022-11-14T07:39:51.585Z,8.80
2022-11-14T07:42:38.029Z,7.90
2022-11-14T07:45:24.197Z,9.40
2022-11-14T07:48:10.459Z,9.88
2022-11-14T07:51:05.029Z,9.40
2022-11-14T07:53:53.793Z,9.57
2022-11-14T07:56:40.057Z,10.40
2022-11-14T07:59:26.302Z,9.55
2022-11-14T08:02:14.577Z,8.30
2022-11-14T08:05:01.413Z,8.95
2022-11-14T08:07:47.415Z,9.38
2022-11-14T08:10:34.031Z,7.78
2022-11-14T08:13:35.352Z,6.40
2022-11-14T08:16:21.214Z,9.65
2022-11-14T08:19:07.198Z,6.60
2022-11-14T08:21:53.436Z,5.97
2022-11-14T08:24:39.584Z,6.45
2022-11-14T08:27:26.043Z,6.55
2022-11-14T08:30:13.013Z,6.30
2022-11-14T08:33:02.850Z,6.10
2022-11-14T08:35:48.988Z,5.68
2022-11-14T08:38:35.742Z,5.35
2022-11-14T08:41:22.117Z,4.68
2022-11-14T08:44:08.260Z,4.95
2022-11-14T08:46:54.499Z,5.68
2022-11-14T08:49:40.738Z,5.70
2022-11-14T08:52:27.061Z,5.32
2022-11-14T08:55:13.370Z,4.93
2022-11-14T08:57:59.280Z,5.03
2022-11-14T09:00:45.761Z,4.30
2022-11-14T09:03:32.467Z,5.03
2022-11-14T09:06:18.941Z,4.68
2022-11-14T09:09:05.146Z,4.20
2022-11-14T09:11:51.233Z,5.53
2022-11-14T09:14:37.498Z,5.07
2022-11-14T09:17:23.710Z,5.53
2022-11-14T09:20:10.149Z,4.95
2022-11-14T09:22:58.985Z,4.85
2022-11-14T09:25:45.488Z,5.20
2022-11-14T09:28:32.193Z,4.63
2022-11-14T09:31:18.121Z,5.15
2022-11-14T09:34:04.328Z,5.47
2022-11-14T09:36:50.311Z,5.20
2022-11-14T09:39:40.657Z,5.20
2022-11-14T09:42:45.556Z,5.35
2022-11-14T09:45:32.577Z,5.88
2022-11-14T09:48:22.499Z,6.97
2022-11-14T09:51:15.438Z,6.15
2022-11-14T09:54:10.903Z,6.80
2022-11-14T09:56:57.249Z,7.00
2022-11-14T09:59:43.674Z,7.57
2022-11-14T10:02:54.490Z,8.63
2022-11-14T10:05:46.315Z,6.72
2022-11-14T10:08:41.333Z,7.38
2022-11-14T10:11:36.508Z,8.23
2022-11-14T10:14:51.799Z,7.25
2022-11-14T10:18:11.659Z,7.70
2022-11-14T10:21:08.021Z,6.95
2022-11-14T10:24:10.769Z,7.45
2022-11-14T10:27:05.949Z,7.20
2022-11-14T10:30:11.726Z,7.07
2022-11-14T10:33:20.636Z,7.25
2022-11-14T10:36:19.535Z,7.50
2022-11-14T10:39:11.072Z,8.55
2022-11-14T10:42:07.367Z,7.85
2022-11-14T10:45:04.849Z,7.43
2022-11-14T10:47:59.354Z,7.60
2022-11-14T10:51:19.017Z,8.05
2022-11-14T10:54:25.754Z,7.75
2022-11-14T10:57:20.937Z,7.78
2022-11-14T11:00:18.730Z,6.93
2022-11-14T11:03:04.828Z,8.90
2022-11-14T11:06:03.312Z,7.60
2022-11-14T11:09:07.474Z,7.45
2022-11-14T11:12:02.594Z,8.23
2022-11-14T11:15:07.968Z,8.95
2022-11-14T11:17:59.245Z,9.45
2022-11-14T11:21:01.181Z,7.68
2022-11-14T11:23:53.673Z,7.35
2022-11-14T11:26:39.568Z,7.57
2022-11-14T11:29:25.861Z,7.93
2022-11-14T11:32:12.048Z,6.93
2022-11-14T11:35:00.622Z,7.13
2022-11-14T11:37:59.359Z,6.50
2022-11-14T11:40:48.581Z,6.10
2022-11-14T11:43:51.294Z,6.22
2022-11-14T11:47:03.682Z,6.93
2022-11-14T11:49:54.211Z,5.38
2022-11-14T11:53:24.704Z,7.28
2022-11-14T11:56:15.300Z,7.82
2022-11-14T11:59:33.639Z,7.47
2022-11-14T12:02:26.324Z,6.68
2022-11-14T12:05:18.838Z,5.80
2022-11-14T12:08:10.977Z,6.22
2022-11-14T12:10:58.316Z,6.68
2022-11-14T12:14:23.304Z,7.50
2022-11-14T12:17:34.421Z,7.15
2022-11-14T12:20:35.452Z,6.43
2022-11-14T12:23:36.419Z,7.38
2022-11-14T12:26:56.049Z,8.30
2022-11-14T12:30:24.461Z,9.68
2022-11-14T12:33:22.737Z,9.90
2022-11-14T12:36:11.331Z,7.13
2022-11-14T12:38:58.314Z,7.00
2022-11-14T12:41:44.107Z,6.88
2022-11-14T12:44:30.321Z,6.60
2022-11-14T12:47:32.114Z,5.75
2022-11-14T12:50:44.316Z,6.30
2022-11-14T12:53:50.635Z,5.68
2022-11-14T12:56:55.966Z,6.18
2022-11-14T13:00:05.935Z,5.32
2022-11-14T13:03:37.511Z,7.65
2022-11-14T13:07:06.173Z,8.32
2022-11-14T13:10:13.877Z,7.90
2022-11-14T13:13:35.058Z,9.95
2022-11-14T13:16:45.051Z,6.68
2022-11-14T13:19:52.665Z,7.53
2022-11-14T13:22:45.860Z,7.68
2022-11-14T13:25:31.927Z,10.43
2022-11-14T13:28:49.397Z,7.13
2022-11-14T13:31:50.956Z,7.32
2022-11-14T13:34:54.261Z,7.20
2022-11-14T13:37:53.605Z,7.00
2022-11-14T13:40:58.436Z,7.18
2022-11-14T13:43:47.692Z,6.13
2022-11-14T13:46:57.785Z,6.75
2022-11-14T13:50:05.609Z,8.45
2022-11-14T13:52:56.699Z,11.15
2022-11-14T13:56:15.644Z,8.80
2022-11-14T13:59:23.252Z,8.55
2022-11-14T14:02:33.566Z,9.70
2022-11-14T14:05:21.123Z,11.75
2022-11-14T14:08:42.142Z,9.18
2022-11-14T14:11:51.264Z,8.52
2022-11-14T14:14:54.474Z,9.02
2022-11-14T14:18:16.005Z,9.88
2022-11-14T14:21:22.772Z,12.55
2022-11-14T14:24:39.931Z,11.38
2022-11-14T14:28:03.539Z,10.80
2022-11-14T14:31:11.132Z,9.07
2022-11-14T14:33:57.307Z,9.43
2022-11-14T14:36:54.117Z,9.90
2022-11-14T14:39:40.272Z,9.13
2022-11-14T14:42:38.200Z,8.55
2022-11-14T14:45:26.087Z,8.60
2022-11-14T14:48:15.586Z,9.40
2022-11-14T14:51:07.535Z,9.65
2022-11-14T14:53:54.225Z,9.93
2022-11-14T14:56:52.240Z,8.52
2022-11-14T14:59:42.243Z,8.48
2022-11-14T15:02:29.900Z,7.55
2022-11-14T15:05:25.995Z,8.38
2022-11-14T15:08:15.807Z,9.35
2022-11-14T15:11:03.706Z,9.68
2022-11-14T15:13:55.118Z,8.73
2022-11-14T15:16:42.143Z,8.90
2022-11-14T15:19:42.240Z,8.85
2022-11-14T15:22:29.359Z,9.38
2022-11-14T15:25:18.520Z,8.52
2022-11-14T15:28:05.383Z,8.95
2022-11-14T15:31:03.966Z,8.68
2022-11-14T15:34:05.171Z,8.30
2022-11-14T15:37:19.091Z,8.32
2022-11-14T15:40:22.186Z,9.80
2022-11-14T15:43:45.147Z,10.10
2022-11-14T15:46:34.170Z,9.40
2022-11-14T15:49:23.047Z,10.50
2022-11-14T15:52:23.343Z,9.23
2022-11-14T15:55:19.936Z,8.73
2022-11-14T16:01:22.952Z,12.30
2022-11-14T16:04:27.765Z,11.00
2022-11-14T16:07:15.433Z,14.73
2022-11-14T16:10:01.477Z,11.95
2022-11-14T16:12:52.235Z,12.13
2022-11-14T16:15:39.219Z,11.82
2022-11-14T16:18:25.378Z,11.65
2022-11-14T16:21:16.636Z,10.75
2022-11-14T16:24:02.575Z,10.93
2022-11-14T16:26:49.693Z,11.13
2022-11-14T16:29:35.760Z,10.23
2022-11-14T16:32:23.555Z,12.48
2022-11-14T16:35:18.048Z,14.65
2022-11-14T16:38:04.258Z,12.85
2022-11-14T16:40:50.323Z,13.35
2022-11-14T16:43:36.515Z,16.63
2022-11-14T16:46:23.339Z,12.80
2022-11-14T16:49:14.438Z,12.25
2022-11-14T16:52:05.634Z,10.32
2022-11-14T16:54:52.043Z,12.02
2022-11-14T16:57:39.072Z,12.60
2022-11-14T17:00:25.188Z,14.68
2022-11-14T17:03:11.464Z,18.45
2022-11-14T17:05:57.963Z,16.63
2022-11-14T17:08:44.586Z,16.30
2022-11-14T17:11:30.749Z,19.67
2022-11-14T17:14:16.900Z,22.85
2022-11-14T17:17:03.486Z,18.60
2022-11-14T17:19:49.893Z,22.58
2022-11-14T17:22:35.886Z,29.50
2022-11-14T17:25:23.445Z,22.40
2022-11-14T17:28:13.657Z,20.02
2022-11-14T17:30:59.654Z,19.67
2022-11-14T17:33:56.918Z,19.90
2022-11-14T17:36:48.120Z,19.90
2022-11-14T17:39:35.335Z,20.10
2022-11-14T17:42:23.842Z,19.90
2022-11-14T17:45:10.449Z,19.40
2022-11-14T17:47:56.487Z,18.27
2022-11-14T17:50:42.454Z,18.05
2022-11-14T17:53:28.877Z,17.42
2022-11-14T17:56:20.044Z,15.82
2022-11-14T17:59:06.522Z,16.60
2022-11-14T18:01:54.719Z,17.48
2022-11-14T18:04:40.841Z,16.90
2022-11-14T18:07:29.592Z,15.40
2022-11-14T18:10:15.852Z,16.10
2022-11-14T18:13:05.145Z,15.20
2022-11-14T18:15:51.322Z,17.52
2022-11-14T18:18:37.663Z,14.95
2022-11-14T18:21:25.085Z,14.10
2022-11-14T18:24:13.709Z,15.05
2022-11-14T18:26:59.975Z,15.27
2022-11-14T18:29:46.230Z,13.43
2022-11-14T18:32:32.453Z,14.85
2022-11-14T18:35:18.482Z,14.13
2022-11-14T18:38:04.864Z,12.60
2022-11-14T18:40:56.904Z,12.45
2022-11-14T18:43:44.654Z,12.02
2022-11-14T18:46:37.121Z,11.05
2022-11-14T18:49:23.649Z,8.93
2022-11-14T18:52:15.781Z,10.57
2022-11-14T18:55:04.881Z,10.10
2022-11-14T18:57:51.345Z,9.25
2022-11-14T19:00:40.315Z,8.63
2022-11-14T19:03:26.699Z,7.68
2022-11-14T19:06:13.345Z,7.65
2022-11-14T19:09:10.572Z,7.20
2022-11-14T19:12:15.577Z,7.50
2022-11-14T19:15:02.510Z,6.50
2022-11-14T19:17:48.858Z,7.28
2022-11-14T19:20:35.114Z,6.32
2022-11-14T19:23:21.148Z,7.30
2022-11-14T19:26:07.432Z,6.53
2022-11-14T19:28:54.102Z,7.10
2022-11-14T19:31:41.715Z,8.77
2022-11-14T19:34:27.961Z,8.35
2022-11-14T19:37:14.055Z,7.28
2022-11-14T19:40:00.495Z,6.55
2022-11-14T19:42:46.675Z,8.10
2022-11-14T19:45:35.111Z,7.30
2022-11-14T19:48:21.003Z,7.20
2022-11-14T19:51:12.121Z,4.90
2022-11-14T19:53:59.593Z,3.97
2022-11-14T19:56:45.777Z,3.83
2022-11-14T19:59:31.808Z,3.13
2022-11-14T20:02:17.978Z,2.42
2022-11-14T20:05:04.121Z,2.83
2022-11-14T20:07:50.506Z,2.10
2022-11-14T20:10:47.895Z,1.83
2022-11-14T20:13:36.654Z,2.03
2022-11-14T20:16:25.294Z,2.35
2022-11-14T20:19:12.036Z,2.05
2022-11-14T20:21:57.970Z,1.48
2022-11-14T20:24:44.364Z,2.63
2022-11-14T20:27:30.471Z,1.77
2022-11-14T20:30:16.596Z,2.22
2022-11-14T20:33:02.756Z,1.65
2022-11-14T20:35:48.983Z,1.70
2022-11-14T20:38:35.361Z,1.85
2022-11-14T20:41:22.052Z,1.73
2022-11-14T20:44:08.297Z,2.53
2022-11-14T20:46:57.137Z,1.92
2022-11-14T20:49:44.530Z,1.52
2022-11-14T20:52:31.239Z,1.90
2022-11-14T20:55:17.853Z,1.45
2022-11-14T20:58:04.065Z,1.63
2022-11-14T21:00:51.189Z,0.93
2022-11-14T21:03:37.948Z,1.17
2022-11-14T21:06:23.975Z,1.10
2022-11-14T21:09:10.413Z,0.82
2022-11-14T21:11:56.526Z,1.05
2022-11-14T21:14:43.110Z,0.70
2022-11-14T21:17:28.949Z,0.60
2022-11-14T21:20:15.138Z,1.10
2022-11-14T21:23:01.424Z,0.57
2022-11-14T21:25:47.519Z,0.50
2022-11-14T21:28:35.627Z,0.40
2022-11-14T21:31:27.550Z,0.40
2022-11-14T21:34:15.948Z,0.35
2022-11-14T21:37:02.041Z,0.38
2022-11-14T21:39:49.024Z,0.60
2022-11-14T21:42:35.384Z,0.60
2022-11-14T21:45:21.803Z,0.50
2022-11-14T21:48:07.701Z,0.57
2022-11-14T21:50:53.908Z,1.27
2022-11-14T21:53:41.262Z,0.70
2022-11-14T21:56:31.248Z,0.60
2022-11-14T21:59:21.570Z,0.43
2022-11-14T22:02:30.783Z,0.52
2022-11-14T22:05:17.171Z,0.50
2022-11-14T22:08:03.288Z,0.60
2022-11-14T22:10:49.188Z,0.50
2022-11-14T22:13:35.312Z,0.40
2022-11-14T22:16:21.593Z,0.55
2022-11-14T22:19:07.739Z,0.50
2022-11-14T22:21:54.478Z,0.57
2022-11-14T22:24:40.447Z,0.63
2022-11-14T22:27:27.183Z,0.50
2022-11-14T22:30:14.085Z,0.60
2022-11-14T22:33:00.586Z,0.70
2022-11-14T22:35:47.073Z,0.52
2022-11-14T22:38:34.581Z,0.52
2022-11-14T22:41:26.468Z,0.52
2022-11-14T22:44:16.957Z,0.57
2022-11-14T22:47:03.237Z,0.60
2022-11-14T22:49:49.244Z,0.45
2022-11-14T22:52:35.314Z,0.73
2022-11-14T22:55:21.348Z,0.50
2022-11-14T22:58:07.519Z,0.63
2022-11-14T23:00:53.698Z,1.05
2022-11-14T23:03:41.027Z,1.10
2022-11-14T23:06:28.500Z,0.60
2022-11-14T23:09:14.762Z,0.40
2022-11-14T23:12:00.690Z,1.08
2022-11-14T23:14:46.779Z,0.20
2022-11-14T23:17:33.063Z,0.40
2022-11-14T23:20:20.281Z,1.25
2022-11-14T23:23:06.806Z,0.52
2022-11-14T23:25:53.054Z,0.40
2022-11-14T23:28:39.021Z,0.28
2022-11-14T23:31:25.833Z,1.13
2022-11-14T23:34:12.094Z,0.77
2022-11-14T23:36:58.308Z,0.40
2022-11-14T23:39:44.314Z,0.50
2022-11-14T23:42:30.583Z,0.50
2022-11-14T23:45:16.649Z,0.30
2022-11-14T23:48:02.556Z,0.40
2022-11-14T23:50:54.245Z,0.40
2022-11-14T23:53:40.879Z,0.32
2022-11-14T23:56:26.777Z,0.40
2022-11-14T23:59:12.881Z,0.30
